| time (UTC) | temp F | wind direction | speed knots | gust knots | rain 1hr in | rain 24hr in | rain mn in | humidity % | barometer mb |
| 20260503184755 | 56 | 329 | 7.8 | 10.4 | 0.00 | 0.00 | 0.00 | 41 | 1018.6 |
| 20260503184252 | 55 | 312 | 6.1 | 10.4 | 0.00 | 0.00 | 0.00 | 39 | 1018.8 |
| 20260503183748 | 56 | 286 | 5.2 | 13.0 | 0.00 | 0.00 | 0.00 | 38 | 1018.8 |
| 20260503183246 | 57 | 297 | 6.1 | 13.0 | 0.00 | 0.00 | 0.00 | 38 | 1018.9 |
| 20260503182743 | 56 | 252 | 5.2 | 5.2 | 0.00 | 0.00 | 0.00 | 38 | 1019.0 |
| 20260503182242 | 55 | 277 | 5.2 | 13.9 | 0.00 | 0.00 | 0.00 | 40 | 1018.9 |
| 20260503181739 | 57 | 212 | 5.2 | 11.3 | 0.00 | 0.00 | 0.00 | 36 | 1019.1 |
| 20260503181236 | 55 | 315 | 5.2 | 11.3 | 0.00 | 0.00 | 0.00 | 38 | 1019.0 |
| 20260503180732 | 56 | 23 | 4.3 | 6.1 | 0.00 | 0.00 | 0.00 | 40 | 1018.8 |
| 20260503180231 | 55 | 221 | 7.8 | 11.3 | 0.00 | 0.00 | 0.00 | 39 | 1019.0 |
| 20260503175727 | 55 | 183 | 5.2 | 13.9 | 0.00 | 0.00 | 0.00 | 40 | 1019.1 |
| 20260503175225 | 54 | 209 | 3.5 | 13.9 | 0.00 | 0.00 | 0.00 | 38 | 1019.3 |
| 20260503174720 | 55 | 261 | 11.3 | 13.9 | 0.00 | 0.00 | 0.00 | 39 | 1019.3 |
| 20260503174218 | 55 | 265 | 5.2 | 19.1 | 0.00 | 0.00 | 0.00 | 38 | 1019.4 |
| 20260503173714 | 54 | 170 | 1.7 | 10.4 | 0.00 | 0.00 | 0.00 | 41 | 1019.4 |
| 20260503173210 | 54 | 247 | 10.4 | 17.4 | 0.00 | 0.00 | 0.00 | 40 | 1019.7 |
| 20260503172707 | 54 | 222 | 5.2 | 8.7 | 0.00 | 0.00 | 0.00 | 41 | 1019.5 |
| 20260503172204 | 54 | 264 | 5.2 | 18.2 | 0.00 | 0.00 | 0.00 | 38 | 1019.6 |
| 20260503171700 | 54 | 246 | 12.2 | 12.2 | 0.00 | 0.00 | 0.00 | 41 | 1019.5 |
| 20260503171158 | 53 | 218 | 4.3 | 16.5 | 0.00 | 0.00 | 0.00 | 40 | 1019.6 |
| 20260503170654 | 54 | 253 | 9.6 | 10.4 | 0.00 | 0.00 | 0.00 | 42 | 1019.6 |
| 20260503170151 | 53 | 221 | 10.4 | 19.1 | 0.00 | 0.00 | 0.00 | 40 | 1019.8 |
| 20260503160113 | 51 | 297 | 10.4 | 16.5 | 0.00 | 0.00 | 0.00 | 45 | 1020.5 |
| 20260503150542 | 48 | 254 | 3.5 | 13.9 | 0.00 | 0.00 | 0.00 | 48 | 1020.6 |
| 20260503130932 | 43 | 257 | 0.0 | 10.4 | 0.00 | 0.00 | 0.00 | 74 | 1020.8 |
| 20260503130430 | 42 | 270 | 4.3 | 5.2 | 0.00 | 0.00 | 0.00 | 76 | 1021.0 |
| 20260503110823 | 35 | 252 | 2.6 | 4.3 | 0.00 | 0.00 | 0.00 | 92 | 1020.0 |
| 20260503110319 | 35 | 210 | 3.5 | 4.3 | 0.00 | 0.00 | 0.00 | 92 | 1020.0 |
| 20260503100246 | 35 | 234 | 4.3 | 5.2 | 0.00 | 0.00 | 0.00 | 92 | 1019.1 |
| 20260503090205 | 35 | 219 | 1.7 | 4.3 | 0.00 | 0.00 | 0.00 | 91 | 1018.9 |
| 20260503081138 | 35 | 210 | 0.0 | 2.6 | 0.00 | 0.00 | 0.00 | 89 | 1018.9 |
| 20260503080634 | 35 | 212 | 2.6 | 4.3 | 0.00 | 0.00 | 0.00 | 88 | 1018.9 |
| 20260503080131 | 35 | 279 | 2.6 | 4.3 | 0.00 | 0.00 | 0.00 | 88 | 1018.9 |
| 20260503072608 | 37 | 254 | 2.6 | 5.2 | 0.00 | 0.00 | 0.00 | 86 | 1018.6 |
| 20260503072105 | 37 | 259 | 1.7 | 3.5 | 0.00 | 0.00 | 0.00 | 86 | 1018.5 |
| 20260503071602 | 37 | 255 | 4.3 | 6.1 | 0.00 | 0.00 | 0.00 | 86 | 1018.4 |
| 20260503071059 | 37 | 273 | 2.6 | 4.3 | 0.00 | 0.00 | 0.00 | 85 | 1018.4 |
| 20260503070555 | 37 | 246 | 3.5 | 6.1 | 0.00 | 0.00 | 0.00 | 85 | 1018.5 |
| 20260503055014 | 39 | 311 | 0.9 | 5.2 | 0.00 | 0.00 | 0.00 | 82 | 1018.6 |
| 20260503054510 | 39 | 233 | 2.6 | 5.2 | 0.00 | 0.00 | 0.00 | 82 | 1018.6 |
| 20260503054008 | 39 | 263 | 4.3 | 6.1 | 0.00 | 0.00 | 0.00 | 82 | 1018.6 |
| 20260503053506 | 39 | 236 | 4.3 | 4.3 | 0.00 | 0.00 | 0.00 | 82 | 1018.6 |
| 20260503053002 | 39 | 233 | 3.5 | 5.2 | 0.00 | 0.00 | 0.00 | 82 | 1018.6 |
| 20260503052459 | 39 | 246 | 3.5 | 3.5 | 0.00 | 0.00 | 0.00 | 82 | 1018.3 |
| 20260503051955 | 39 | 226 | 2.6 | 4.3 | 0.00 | 0.00 | 0.00 | 82 | 1018.6 |
| 20260503051451 | 39 | 260 | 2.6 | 3.5 | 0.00 | 0.00 | 0.00 | 82 | 1018.5 |
| 20260503050949 | 39 | 240 | 3.5 | 3.5 | 0.00 | 0.00 | 0.00 | 82 | 1018.6 |
| 20260503050445 | 39 | 285 | 2.6 | 3.5 | 0.00 | 0.00 | 0.00 | 82 | 1018.6 |
| 20260503045943 | 39 | 297 | 2.6 | 5.2 | 0.00 | 0.00 | 0.00 | 81 | 1018.7 |
| 20260503045440 | 39 | 262 | 4.3 | 4.3 | 0.00 | 0.00 | 0.00 | 81 | 1018.7 |
| 20260503044936 | 39 | 266 | 3.5 | 4.3 | 0.00 | 0.00 | 0.00 | 81 | 1018.5 |
| 20260503044433 | 39 | 203 | 0.0 | 4.3 | 0.00 | 0.00 | 0.00 | 81 | 1018.7 |
| 20260503043931 | 39 | 249 | 0.9 | 2.6 | 0.00 | 0.00 | 0.00 | 81 | 1018.6 |
| 20260503043427 | 39 | 255 | 0.0 | 3.5 | 0.00 | 0.00 | 0.00 | 80 | 1018.9 |
| 20260503042924 | 39 | 285 | 0.0 | 3.5 | 0.00 | 0.00 | 0.00 | 80 | 1018.6 |
| 20260503042420 | 39 | 270 | 0.9 | 2.6 | 0.00 | 0.00 | 0.00 | 80 | 1018.6 |
| 20260503041917 | 40 | 299 | 1.7 | 3.5 | 0.00 | 0.00 | 0.00 | 79 | 1018.7 |
| 20260503041414 | 40 | 8 | 1.7 | 2.6 | 0.00 | 0.00 | 0.00 | 79 | 1018.7 |
| 20260503040911 | 40 | 14 | 0.0 | 2.6 | 0.00 | 0.00 | 0.00 | 79 | 1018.6 |
| 20260503040409 | 40 | 241 | 1.7 | 2.6 | 0.00 | 0.00 | 0.00 | 79 | 1018.5 |
| 20260503035906 | 40 | 5 | 0.0 | 1.7 | 0.00 | 0.00 | 0.00 | 79 | 1018.7 |
| 20260503035402 | 40 | 262 | 0.9 | 1.7 | 0.00 | 0.00 | 0.00 | 78 | 1018.6 |
| 20260503034859 | 40 | 323 | 1.7 | 3.5 | 0.00 | 0.00 | 0.00 | 79 | 1018.7 |
| 20260503034357 | 40 | 6 | 0.9 | 0.9 | 0.00 | 0.00 | 0.00 | 79 | 1018.7 |
| 20260503033854 | 40 | 351 | 1.7 | 3.5 | 0.00 | 0.00 | 0.00 | 78 | 1018.8 |
| 20260503033352 | 40 | 241 | 1.7 | 2.6 | 0.00 | 0.00 | 0.00 | 78 | 1018.7 |
| 20260503032849 | 40 | 273 | 2.6 | 3.5 | 0.00 | 0.00 | 0.00 | 78 | 1018.7 |
| 20260503032348 | 40 | 114 | 0.0 | 1.7 | 0.00 | 0.00 | 0.00 | 78 | 1018.8 |
| 20260503031845 | 40 | 17 | 2.6 | 2.6 | 0.00 | 0.00 | 0.00 | 78 | 1018.6 |
| 20260503031343 | 40 | 49 | 0.0 | 1.7 | 0.00 | 0.00 | 0.00 | 79 | 1018.7 |
| 20260503030839 | 40 | 246 | 0.0 | 1.7 | 0.00 | 0.00 | 0.00 | 78 | 1018.9 |
| 20260503030335 | 40 | 180 | 0.0 | 1.7 | 0.00 | 0.00 | 0.00 | 78 | 1018.8 |
| 20260503025832 | 40 | 254 | 0.0 | 1.7 | 0.00 | 0.00 | 0.00 | 77 | 1018.6 |
| 20260503025330 | 40 | 255 | 0.9 | 3.5 | 0.00 | 0.00 | 0.00 | 76 | 1018.7 |
| 20260503024826 | 40 | 19 | 1.7 | 2.6 | 0.00 | 0.00 | 0.00 | 76 | 1018.7 |
| 20260503024323 | 40 | 0 | 2.6 | 3.5 | 0.00 | 0.00 | 0.00 | 76 | 1018.8 |
| 20260503023820 | 40 | 37 | 5.2 | 7.0 | 0.00 | 0.00 | 0.00 | 76 | 1018.6 |
| 20260503023317 | 40 | 45 | 2.6 | 3.5 | 0.00 | 0.00 | 0.00 | 76 | 1018.8 |
| 20260503022814 | 40 | 27 | 2.6 | 3.5 | 0.00 | 0.00 | 0.00 | 76 | 1018.7 |
| 20260503022314 | 40 | 36 | 1.7 | 2.6 | 0.00 | 0.00 | 0.00 | 76 | 1018.7 |
| 20260503021811 | 40 | 33 | 1.7 | 2.6 | 0.00 | 0.00 | 0.00 | 75 | 1018.7 |
| 20260503021307 | 40 | 70 | 1.7 | 2.6 | 0.00 | 0.00 | 0.00 | 75 | 1018.9 |
| 20260503020805 | 40 | 29 | 3.5 | 3.5 | 0.00 | 0.00 | 0.00 | 75 | 1018.6 |
| 20260503020302 | 41 | 90 | 2.6 | 3.5 | 0.00 | 0.00 | 0.00 | 75 | 1019.0 |
| 20260503015758 | 41 | 54 | 3.5 | 3.5 | 0.00 | 0.00 | 0.00 | 74 | 1018.9 |
| 20260503015255 | 41 | 61 | 1.7 | 2.6 | 0.00 | 0.00 | 0.00 | 74 | 1018.7 |
| 20260503014751 | 41 | 12 | 3.5 | 4.3 | 0.00 | 0.00 | 0.00 | 74 | 1018.9 |
| 20260503014249 | 41 | 41 | 5.2 | 9.6 | 0.00 | 0.00 | 0.00 | 74 | 1018.6 |
| 20260503013746 | 41 | 356 | 0.0 | 7.8 | 0.00 | 0.00 | 0.00 | 74 | 1018.9 |
| 20260503013244 | 41 | 53 | 1.7 | 5.2 | 0.00 | 0.00 | 0.00 | 74 | 1018.4 |
| 20260503012741 | 41 | 43 | 3.5 | 3.5 | 0.00 | 0.00 | 0.00 | 74 | 1018.6 |
| 20260503012238 | 41 | 8 | 0.0 | 3.5 | 0.00 | 0.00 | 0.00 | 74 | 1018.5 |
| 20260503011734 | 41 | 81 | 1.7 | 2.6 | 0.00 | 0.00 | 0.00 | 74 | 1018.5 |
| 20260503011232 | 42 | 4 | 1.7 | 4.3 | 0.00 | 0.00 | 0.00 | 74 | 1018.7 |
| 20260503010727 | 42 | 15 | 0.0 | 2.6 | 0.00 | 0.00 | 0.00 | 73 | 1018.5 |
| 20260503010225 | 42 | 83 | 2.6 | 6.1 | 0.00 | 0.00 | 0.00 | 73 | 1018.4 |
| 20260503005722 | 42 | 65 | 3.5 | 8.7 | 0.00 | 0.00 | 0.00 | 74 | 1018.5 |
| 20260503005219 | 42 | 9 | 5.2 | 8.7 | 0.00 | 0.00 | 0.00 | 74 | 1018.4 |
| 20260503004715 | 42 | 110 | 1.7 | 3.5 | 0.00 | 0.00 | 0.00 | 75 | 1018.3 |
| 20260503004214 | 42 | 30 | 1.7 | 2.6 | 0.00 | 0.00 | 0.00 | 75 | 1018.3 |
| 20260503003711 | 42 | 74 | 2.6 | 2.6 | 0.00 | 0.00 | 0.00 | 75 | 1018.1 |
| 20260503003208 | 42 | 90 | 1.7 | 1.7 | 0.00 | 0.00 | 0.00 | 74 | 1018.0 |
| 20260503002704 | 42 | 80 | 4.3 | 4.3 | 0.00 | 0.00 | 0.00 | 74 | 1017.9 |
| 20260503002201 | 42 | 52 | 2.6 | 5.2 | 0.00 | 0.00 | 0.00 | 74 | 1017.9 |
| 20260503001657 | 42 | 35 | 5.2 | 7.0 | 0.00 | 0.00 | 0.00 | 74 | 1018.0 |
| 20260503001154 | 42 | 94 | 2.6 | 4.3 | 0.00 | 0.00 | 0.00 | 73 | 1018.0 |
| 20260503000652 | 42 | 57 | 4.3 | 5.2 | 0.00 | 0.00 | 0.00 | 73 | 1017.9 |
| 20260503000149 | 43 | 30 | 1.7 | 7.0 | 0.00 | 0.00 | 0.00 | 72 | 1017.6 |
| 20260502235645 | 43 | 79 | 3.5 | 4.3 | 0.00 | 0.00 | 0.00 | 71 | 1017.7 |
| 20260502235144 | 43 | 18 | 4.3 | 10.4 | 0.00 | 0.00 | 0.00 | 70 | 1017.5 |
| 20260502234639 | 43 | 23 | 2.6 | 4.3 | 0.00 | 0.00 | 0.00 | 70 | 1017.6 |
| 20260502234137 | 43 | 27 | 4.3 | 7.0 | 0.00 | 0.00 | 0.00 | 70 | 1017.6 |
| 20260502233632 | 44 | 62 | 4.3 | 11.3 | 0.00 | 0.00 | 0.00 | 69 | 1017.5 |
| 20260502233129 | 44 | 0 | 1.7 | 7.8 | 0.00 | 0.00 | 0.00 | 69 | 1017.5 |
| 20260502232625 | 44 | 307 | 1.7 | 7.8 | 0.00 | 0.00 | 0.00 | 69 | 1017.2 |
| 20260502232123 | 44 | 3 | 1.7 | 7.8 | 0.00 | 0.00 | 0.00 | 68 | 1017.4 |
| 20260502231619 | 45 | 337 | 2.6 | 7.8 | 0.00 | 0.00 | 0.00 | 68 | 1017.3 |
| 20260502231118 | 45 | 30 | 5.2 | 8.7 | 0.00 | 0.00 | 0.00 | 68 | 1017.2 |
| 20260502230615 | 45 | 24 | 3.5 | 7.0 | 0.00 | 0.00 | 0.00 | 68 | 1017.1 |
| 20260502230114 | 45 | 26 | 6.1 | 12.2 | 0.00 | 0.00 | 0.00 | 67 | 1017.0 |
| 20260502225609 | 46 | 331 | 3.5 | 6.1 | 0.00 | 0.00 | 0.00 | 66 | 1016.9 |
| 20260502225106 | 46 | 19 | 4.3 | 9.6 | 0.00 | 0.00 | 0.00 | 65 | 1017.0 |
| 20260502224602 | 46 | 60 | 2.6 | 13.0 | 0.00 | 0.00 | 0.00 | 64 | 1016.8 |
| 20260502224059 | 46 | 11 | 5.2 | 10.4 | 0.00 | 0.00 | 0.00 | 62 | 1016.8 |
| 20260502223557 | 47 | 288 | 5.2 | 6.1 | 0.00 | 0.00 | 0.00 | 60 | 1016.8 |
| 20260502223055 | 47 | 311 | 13.0 | 16.5 | 0.00 | 0.00 | 0.00 | 60 | 1016.7 |
| 20260502222552 | 47 | 0 | 0.9 | 2.6 | 0.00 | 0.00 | 0.00 | 61 | 1016.6 |
| 20260502222048 | 47 | 95 | 2.6 | 9.6 | 0.00 | 0.00 | 0.00 | 63 | 1016.8 |
| 20260502221544 | 47 | 19 | 2.6 | 6.1 | 0.00 | 0.00 | 0.00 | 62 | 1016.5 |
| 20260502221042 | 47 | 14 | 10.4 | 13.0 | 0.00 | 0.00 | 0.00 | 60 | 1016.7 |
| 20260502220537 | 48 | 59 | 4.3 | 9.6 | 0.00 | 0.00 | 0.00 | 55 | 1016.6 |
| 20260502220034 | 48 | 27 | 7.8 | 8.7 | 0.00 | 0.00 | 0.00 | 53 | 1016.5 |
| 20260502215531 | 48 | 342 | 1.7 | 11.3 | 0.00 | 0.00 | 0.00 | 52 | 1016.5 |
| 20260502215028 | 48 | 275 | 3.5 | 8.7 | 0.00 | 0.00 | 0.00 | 52 | 1016.4 |
| 20260502214525 | 49 | 239 | 1.7 | 7.8 | 0.00 | 0.00 | 0.00 | 51 | 1016.3 |
| 20260502214023 | 48 | 301 | 5.2 | 9.6 | 0.00 | 0.00 | 0.00 | 51 | 1016.4 |
| 20260502213519 | 49 | 290 | 4.3 | 7.8 | 0.00 | 0.00 | 0.00 | 51 | 1016.3 |
| 20260502213018 | 48 | 312 | 6.1 | 8.7 | 0.00 | 0.00 | 0.00 | 50 | 1016.3 |
| 20260502212516 | 48 | 306 | 3.5 | 10.4 | 0.00 | 0.00 | 0.00 | 53 | 1016.2 |
| 20260502212013 | 48 | 314 | 4.3 | 7.8 | 0.00 | 0.00 | 0.00 | 51 | 1016.2 |
| 20260502211509 | 48 | 309 | 8.7 | 17.4 | 0.00 | 0.00 | 0.00 | 51 | 1016.2 |
| 20260502211006 | 49 | 293 | 7.0 | 11.3 | 0.00 | 0.00 | 0.00 | 48 | 1016.1 |
| 20260502210503 | 50 | 246 | 1.7 | 6.1 | 0.00 | 0.00 | 0.00 | 49 | 1016.1 |
| 20260502210000 | 49 | 355 | 3.5 | 9.6 | 0.00 | 0.00 | 0.00 | 49 | 1016.1 |
| 20260502205456 | 49 | 299 | 10.4 | 13.0 | 0.00 | 0.00 | 0.00 | 49 | 1016.1 |
| 20260502204953 | 49 | 318 | 5.2 | 9.6 | 0.00 | 0.00 | 0.00 | 50 | 1016.1 |
| 20260502204450 | 50 | 292 | 3.5 | 7.8 | 0.00 | 0.00 | 0.00 | 50 | 1016.1 |
| 20260502203948 | 49 | 315 | 3.5 | 6.1 | 0.00 | 0.00 | 0.00 | 50 | 1016.2 |
| 20260502203445 | 49 | 307 | 2.6 | 7.8 | 0.00 | 0.00 | 0.00 | 49 | 1016.1 |
| 20260502202941 | 49 | 290 | 5.2 | 11.3 | 0.00 | 0.00 | 0.00 | 50 | 1016.1 |
| 20260502202438 | 48 | 328 | 0.9 | 12.2 | 0.00 | 0.00 | 0.00 | 51 | 1016.1 |
| 20260502201936 | 49 | 326 | 7.8 | 13.9 | 0.00 | 0.00 | 0.00 | 49 | 1016.2 |
| 20260502201432 | 49 | 39 | 6.1 | 10.4 | 0.00 | 0.00 | 0.00 | 50 | 1016.2 |
| 20260502200929 | 49 | 294 | 3.5 | 12.2 | 0.00 | 0.00 | 0.00 | 48 | 1016.3 |
| 20260502200424 | 49 | 295 | 6.1 | 13.0 | 0.00 | 0.00 | 0.00 | 50 | 1016.1 |
| 20260502195923 | 50 | 343 | 7.0 | 9.6 | 0.00 | 0.00 | 0.00 | 49 | 1016.2 |
| 20260502195419 | 50 | 162 | 1.7 | 7.8 | 0.00 | 0.00 | 0.00 | 51 | 1016.1 |
| 20260502194916 | 49 | 338 | 6.1 | 12.2 | 0.00 | 0.00 | 0.00 | 50 | 1016.2 |
| 20260502194413 | 49 | 322 | 5.2 | 10.4 | 0.00 | 0.00 | 0.00 | 49 | 1016.3 |
| 20260502193909 | 49 | 308 | 7.0 | 10.4 | 0.00 | 0.00 | 0.00 | 49 | 1016.5 |
| 20260502193406 | 49 | 19 | 0.0 | 10.4 | 0.00 | 0.00 | 0.00 | 49 | 1016.4 |
| 20260502192901 | 49 | 345 | 5.2 | 11.3 | 0.00 | 0.00 | 0.00 | 48 | 1016.3 |
| 20260502192359 | 49 | 320 | 11.3 | 13.9 | 0.00 | 0.00 | 0.00 | 49 | 1016.5 |
| 20260502191855 | 50 | 299 | 6.1 | 9.6 | 0.00 | 0.00 | 0.00 | 49 | 1016.5 |
| 20260502191354 | 49 | 352 | 1.7 | 9.6 | 0.00 | 0.00 | 0.00 | 48 | 1016.7 |
| 20260502190851 | 49 | 52 | 3.5 | 7.8 | 0.00 | 0.00 | 0.00 | 50 | 1016.9 |
| 20260502190348 | 49 | 284 | 6.1 | 6.1 | 0.00 | 0.00 | 0.00 | 47 | 1016.8 |
| 20260502185844 | 50 | 258 | 2.6 | 3.5 | 0.00 | 0.00 | 0.00 | 49 | 1016.8 |
| 20260502185339 | 49 | 294 | 1.7 | 11.3 | 0.00 | 0.00 | 0.00 | 48 | 1016.9 |